CheckWX is a tool to help pilots better visualize weather data.  It is not intended as a substitute for an official pre-flight weather briefing.

09:24:54 UTC

DFOO METAR
Bobo Dioulasso Airport
Bobo Dioulasso, Burkina Faso
Current

25 mins ago

DFOO 200900Z VRB02KT 6000 NSC 28/16 Q1013
Observed
Feb-20 @ 09:00 UTC
Wind
  • Variable at 2 KTS
Visibility
6,003 meters
Flight Rules
MVFR
Cloud Levels
  • Clear skies
Temperature
28°C / 82°F
Dewpoint
16°C / 61°F
Humidity
48%
Altimeter
29.91" Hg
Pressure
1012.92 hPa
Previous

2 hours ago

DFOO 200700Z 17005KT 130V220 6000 NSC 28/15 Q1012
Observed
Feb-20 @ 07:00 UTC
Wind
  • 170° at 5 KTS
Visibility
6,003 meters
Flight Rules
MVFR
Cloud Levels
  • Clear skies
Temperature
28°C / 82°F
Dewpoint
15°C / 59°F
Humidity
45%
Altimeter
29.88" Hg
Pressure
1011.92 hPa
Previous

3 hours ago

DFOO 200600Z 11006KT CAVOK 28/14 Q1010
Observed
Feb-20 @ 06:00 UTC
Wind
  • 110° at 6 KTS
Visibility
10,000+ meters
Flight Rules
VFR
Cloud Levels
  • Clear skies
Temperature
28°C / 82°F
Dewpoint
14°C / 57°F
Humidity
42%
Altimeter
29.82" Hg
Pressure
1009.92 hPa